Time;durP1;ratioP1;P1;durP2;ratioP2;P2;SDS_P1;SDS_P2;PMS_P1;PMS_P2;Temp;Humidity;BMP_temperature;BMP_pressure;BME280_temperature;BME280_humidity;BME280_pressure;Samples;Min_cycle;Max_cycle;Signal;HPM_P1;HPM_P2
2022/01/18 06:21:34;;;;;;;;;;;;;;;1.48;87.34;101640.28;4962104;28;19928;-85
2022/01/18 06:24:00;;;;;;;;;;;;;;;1.45;87.33;101635.88;4962889;28;20296;-85
2022/01/18 06:26:25;;;;;;;;;;;;;;;1.47;87.41;101646.38;4962467;28;19926;-86
2022/01/18 06:28:50;;;;;;;;;;;;;;;1.48;87.32;101650.72;4963529;28;19953;-87
2022/01/18 06:31:16;;;;;;;;;;;;;;;1.47;87.18;101646.38;4963714;28;20393;-87
2022/01/18 06:33:41;;;;;;;;;;;;;;;1.46;87.27;101652.44;4960917;28;19938;-86
2022/01/18 06:36:06;;;;;;;;;;;;;;;1.41;87.22;101647.09;4962343;28;20339;-86
2022/01/18 06:38:32;;;;;;;;;;;;;;;1.40;86.98;101655.75;4963342;28;19929;-86
2022/01/18 06:40:57;;;;;;;;;;;;;;;1.40;87.03;101657.50;4963852;28;19918;-88
2022/01/18 06:43:22;;;;;;;;;;;;;;;1.39;86.70;101660.97;4963229;28;19945;-88
2022/01/18 06:45:48;;;;;;;;;;;;;;;1.36;86.62;101664.38;4963666;28;19965;-89
2022/01/18 06:48:13;;;;;;;;;;;;;;;1.34;86.45;101673.00;4962089;28;20377;-87
2022/01/18 06:50:39;;;;;;;;;;;;;;;1.35;86.29;101674.78;4962806;28;20005;-85
2022/01/18 06:53:05;;;;;;;;;;;;;;;1.35;86.08;101672.19;4963265;28;19919;-88
2022/01/18 06:55:30;;;;;;;;;;;;;;;1.27;85.97;101680.69;4962634;28;19976;-86
2022/01/18 06:57:59;;;;;;;;;;;;;;;1.26;85.86;101673.72;4964158;28;20354;-86
2022/01/18 07:00:24;;;;;;;;;;;;;;;1.29;85.87;101685.09;4963165;28;19958;-86
2022/01/18 07:02:49;;;;;;;;;;;;;;;1.25;85.62;101677.16;4961986;28;20024;-87
2022/01/18 07:05:15;;;;;;;;;;;;;;;1.24;85.61;101683.22;4962299;28;20270;-89
2022/01/18 07:07:41;;;;;;;;;;;;;;;1.40;87.72;101683.63;4963350;28;19925;-86
2022/01/18 07:10:07;;;;;;;;;;;;;;;1.57;90.37;101681.44;4963034;28;20005;-85
2022/01/18 07:12:34;;;;;;;;;;;;;;;1.53;91.66;101687.41;4962742;28;19922;-87
2022/01/18 07:15:00;;;;;;;;;;;;;;;1.55;92.54;101688.38;4963234;28;19965;-84
2022/01/18 07:17:25;;;;;;;;;;;;;;;1.50;92.98;101698.69;4963136;28;20321;-84
2022/01/18 07:19:50;;;;;;;;;;;;;;;1.50;93.38;101689.94;4961759;28;20377;-84
2022/01/18 07:22:16;;;;;;;;;;;;;;;1.48;93.63;101695.13;4963192;28;19992;-85
2022/01/18 07:24:45;;;;;;;;;;;;;;;1.45;93.82;101692.44;4963006;28;19922;-84
2022/01/18 07:27:11;;;;;;;;;;;;;;;1.43;93.75;101688.91;4962456;28;19929;-84
2022/01/18 07:29:37;;;;;;;;;;;;;;;1.42;93.77;101689.75;4960967;28;19926;-84
2022/01/18 07:32:04;;;;;;;;;;;;;;;1.42;93.84;101690.66;4962709;28;19922;-84
2022/01/18 07:34:31;;;;;;;;;;;;;;;1.38;93.67;101693.16;4961871;28;19918;-85
2022/01/18 07:36:57;;;;;;;;;;;;;;;1.38;93.45;101691.41;4962745;28;19965;-84
2022/01/18 07:39:22;;;;;;;;;;;;;;;1.34;93.16;101694.81;4966163;28;19926;-83
2022/01/18 07:41:47;;;;;;;;;;;;;;;1.34;93.01;101691.28;4966175;28;19953;-84
2022/01/18 07:44:12;;;;;;;;;;;;;;;1.33;92.60;101700.00;4966372;28;19929;-84
2022/01/18 07:46:38;;;;;;;;;;;;;;;1.31;92.48;101699.06;4966136;28;19926;-84
2022/01/18 07:49:03;;;;;;;;;;;;;;;1.31;92.24;101705.19;4964787;28;19925;-84
2022/01/18 07:51:28;;;;;;;;;;;;;;;1.30;92.16;101707.75;4966126;28;20468;-83
2022/01/18 07:53:53;;;;;;;;;;;;;;;1.29;91.86;101705.97;4966388;28;19941;-84
2022/01/18 07:56:19;;;;;;;;;;;;;;;1.26;91.48;101707.66;4966098;28;19918;-84
2022/01/18 07:58:44;;;;;;;;;;;;;;;1.25;91.33;101710.25;4965924;28;19929;-84
2022/01/18 08:01:09;;;;;;;;;;;;;;;1.26;90.88;101704.16;4966043;28;19919;-84
2022/01/18 08:03:34;;;;;;;;;;;;;;;1.21;90.51;101703.16;4964728;28;20369;-85
2022/01/18 08:06:00;;;;;;;;;;;;;;;1.20;90.48;101702.28;4966048;28;19919;-84
2022/01/18 08:08:26;;;;;;;;;;;;;;;1.25;90.13;101705.91;4965839;28;19922;-85
2022/01/18 08:10:51;;;;;;;;;;;;;;;1.21;89.99;101698.84;4965689;28;19963;-84
2022/01/18 09:00:27;;;;;;;;;;;;;;;1.36;85.33;101713.13;5003094;28;20423;-85
2022/01/18 09:02:52;;;;;;;;;;;;;;;1.34;85.32;101709.59;4995052;28;19922;-84
2022/01/18 09:05:21;;;;;;;;;;;;;;;1.37;85.26;101704.44;5012720;28;20380;-86
2022/01/18 09:07:46;;;;;;;;;;;;;;;1.38;85.12;101704.47;4994878;28;19921;-85
2022/01/18 09:10:12;;;;;;;;;;;;;;;1.44;85.21;101703.75;4994255;28;19922;-85
2022/01/18 09:12:38;;;;;;;;;;;;;;;1.43;84.95;101704.59;5012866;28;19976;-85
2022/01/18 09:15:06;;;;;;;;;;;;;;;1.42;85.12;101702.81;5009918;28;19926;-87
2022/01/18 09:17:31;;;;;;;;;;;;;;;1.41;84.85;101706.28;4994414;28;20286;-85
2022/01/18 09:19:58;;;;;;;;;;;;;;;1.44;84.77;101698.53;5012358;28;19977;-86
2022/01/18 09:22:23;;;;;;;;;;;;;;;1.44;84.59;101698.53;5012406;28;19921;-86
2022/01/18 09:24:48;;;;;;;;;;;;;;;1.41;84.42;101701.06;4994628;28;20376;-85
2022/01/18 09:27:15;;;;;;;;;;;;;;;1.45;84.65;101702.91;4993694;28;19922;-84
2022/01/18 09:29:40;;;;;;;;;;;;;;;1.42;84.22;101703.72;4992365;28;19929;-84
2022/01/18 09:32:05;;;;;;;;;;;;;;;1.38;83.91;101694.03;4993757;28;19928;-84
2022/01/18 09:34:31;;;;;;;;;;;;;;;1.38;83.76;101693.16;4994136;28;19936;-86
2022/01/18 09:36:56;;;;;;;;;;;;;;;1.44;83.95;101695.94;4994450;28;20015;-85
2022/01/18 09:39:22;;;;;;;;;;;;;;;1.45;83.90;101702.91;4994041;28;19925;-83
2022/01/18 09:41:51;;;;;;;;;;;;;;;1.48;83.82;101699.50;5012583;28;20357;-86
2022/01/18 09:44:17;;;;;;;;;;;;;;;1.48;83.59;101700.38;4992798;28;20086;-85
2022/01/18 09:46:42;;;;;;;;;;;;;;;1.47;83.20;101689.88;4993966;28;19929;-84
2022/01/18 09:49:08;;;;;;;;;;;;;;;1.49;83.34;101691.69;4994202;28;20364;-84
2022/01/18 09:51:33;;;;;;;;;;;;;;;1.52;83.28;101699.59;4987682;28;20344;-84
2022/01/18 09:53:58;;;;;;;;;;;;;;;1.52;83.06;101699.59;5012308;28;19922;-86
2022/01/18 09:56:24;;;;;;;;;;;;;;;1.49;82.97;101701.28;5012332;28;20284;-84
2022/01/18 09:58:50;;;;;;;;;;;;;;;1.56;82.98;101706.66;5011048;28;19948;-86
2022/01/18 10:01:15;;;;;;;;;;;;;;;1.58;82.90;101704.09;5011439;28;19925;-87
2022/01/18 10:03:41;;;;;;;;;;;;;;;1.63;82.82;101705.09;4994116;28;20383;-85
2022/01/18 10:06:07;;;;;;;;;;;;;;;1.61;82.81;101710.28;4993810;28;19928;-87
2022/01/18 10:08:33;;;;;;;;;;;;;;;1.62;82.85;101704.19;5011908;28;19951;-85
2022/01/18 10:11:00;;;;;;;;;;;;;;;1.68;82.96;101702.59;4993708;28;19928;-84
2022/01/18 10:13:26;;;;;;;;;;;;;;;1.67;82.93;101706.06;4991864;28;20306;-88
2022/01/18 10:16:07;;;;;;;;;;;;;;;1.70;82.27;101712.22;4994262;28;19972;-86
2022/01/18 10:18:39;;;;;;;;;;;;;;;1.68;82.30;101713.06;5011112;28;20008;-85
2022/01/18 10:21:08;;;;;;;;;;;;;;;1.73;82.63;101711.44;4993113;28;20008;-85
2022/01/18 10:23:34;;;;;;;;;;;;;;;1.74;82.52;101713.19;5011012;28;19995;-86
2022/01/18 10:26:14;;;;;;;;;;;;;;;1.76;82.57;101706.28;5011043;28;20372;-86
2022/01/18 10:28:39;;;;;;;;;;;;;;;1.76;82.74;101694.09;5009554;28;19995;-86
2022/01/18 10:31:22;;;;;;;;;;;;;;;1.78;82.69;101707.19;5011236;28;20356;-86
2022/01/18 10:33:58;;;;;;;;;;;;;;;1.75;82.67;101707.13;5010695;28;19921;-84
2022/01/18 10:36:24;;;;;;;;;;;;;;;2.65;86.27;101689.00;5010349;28;19928;-92
2022/01/18 10:38:59;;;;;;;;;;;;;;;3.56;87.46;101683.69;5011010;28;19917;-83
2022/01/18 10:41:28;;;;;;;;;;;;;;;2.73;86.54;101682.22;5010361;28;19921;-84
2022/01/18 10:44:04;;;;;;;;;;;;;;;2.39;86.37;101675.41;4991227;28;19976;-83
2022/01/18 10:46:33;;;;;;;;;;;;;;;2.21;85.92;101670.69;5010687;28;19945;-84
2022/01/18 10:48:58;;;;;;;;;;;;;;;2.14;85.37;101669.69;5011546;28;19922;-83
2022/01/18 10:51:24;;;;;;;;;;;;;;;2.11;84.90;101664.38;5011669;28;20090;-83
2022/01/18 10:54:00;;;;;;;;;;;;;;;2.12;84.37;101671.34;5011412;28;20460;-83
2022/01/18 10:56:25;;;;;;;;;;;;;;;2.12;83.76;101667.03;4992269;28;19926;-82
2022/01/18 10:58:55;;;;;;;;;;;;;;;2.07;83.45;101668.63;5010430;28;19963;-85
2022/01/18 11:01:21;;;;;;;;;;;;;;;2.13;83.64;101665.28;4992996;28;19921;-84
2022/01/18 11:04:25;;;;;;;;;;;;;;;2.08;83.38;101662.56;5011364;28;20391;-83
2022/01/18 11:06:57;;;;;;;;;;;;;;;2.06;82.91;101655.53;4912277;29;19923;-83
2022/01/18 11:09:23;;;;;;;;;;;;;;;2.06;82.60;101658.13;4912456;29;19977;-83
2022/01/18 11:11:49;;;;;;;;;;;;;;;2.16;82.83;101649.66;4964217;28;19918;-82
2022/01/18 11:14:17;;;;;;;;;;;;;;;2.18;82.53;101648.81;5014578;28;19924;-83
2022/01/18 11:16:44;;;;;;;;;;;;;;;2.14;82.50;101646.13;5014486;28;19925;-84
2022/01/18 11:19:43;;;;;;;;;;;;;;;2.23;82.45;101643.69;4997068;28;19921;-83
2022/01/18 11:22:04;;;;;;;;;;;;;;;2.18;82.17;101642.72;5011102;28;19980;-83
2022/01/18 11:24:29;;;;;;;;;;;;;;;2.21;82.14;101627.09;5014941;28;20355;-83
2022/01/18 11:26:56;;;;;;;;;;;;;;;2.23;81.99;101621.88;5014733;28;19957;-82
2022/01/18 11:29:26;;;;;;;;;;;;;;;2.23;81.86;101633.22;5013742;28;19924;-84
2022/01/18 11:31:52;;;;;;;;;;;;;;;2.27;81.54;101636.81;5014727;28;19925;-83
2022/01/18 11:34:29;;;;;;;;;;;;;;;2.26;81.84;101635.03;5013728;28;19922;-84
2022/01/18 11:36:59;;;;;;;;;;;;;;;2.26;82.42;101627.19;4996672;28;19929;-83
2022/01/18 11:39:27;;;;;;;;;;;;;;;2.33;82.62;101629.06;5014368;28;19921;-84
2022/01/18 11:42:04;;;;;;;;;;;;;;;2.34;82.00;101621.25;5013990;28;19935;-83
2022/01/18 11:44:29;;;;;;;;;;;;;;;2.33;81.83;101627.34;5012452;28;19925;-83
2022/01/18 11:46:55;;;;;;;;;;;;;;;2.44;81.81;101622.34;4995990;28;19922;-85
2022/01/18 11:49:25;;;;;;;;;;;;;;;2.42;81.52;101620.53;4996737;28;19922;-83
2022/01/18 11:51:58;;;;;;;;;;;;;;;2.38;81.70;101613.47;4994851;28;19925;-84
2022/01/18 11:54:55;;;;;;;;;;;;;;;2.35;81.55;101615.16;4995567;28;19925;-83
2022/01/18 11:57:21;;;;;;;;;;;;;;;2.41;81.92;101619.66;4995726;28;19952;-83
2022/01/18 11:59:47;;;;;;;;;;;;;;;2.39;81.99;101612.63;4993921;28;19929;-84
2022/01/18 12:02:24;;;;;;;;;;;;;;;2.41;81.94;101616.13;4995116;28;19929;-84
2022/01/18 12:05:03;;;;;;;;;;;;;;;2.43;81.96;101619.69;4996439;28;19918;-85
2022/01/18 12:07:38;;;;;;;;;;;;;;;2.45;81.96;101612.75;4996077;28;20350;-84
2022/01/18 12:10:05;;;;;;;;;;;;;;;2.44;81.82;101611.88;4995079;28;19928;-84
2022/01/18 12:12:39;;;;;;;;;;;;;;;2.44;81.55;101603.13;5013540;28;19921;-84
2022/01/18 12:15:26;;;;;;;;;;;;;;;2.45;81.16;101604.91;4994835;28;19929;-84
2022/01/18 12:17:55;;;;;;;;;;;;;;;2.47;81.24;101605.78;4996202;28;20330;-84
2022/01/18 12:20:33;;;;;;;;;;;;;;;2.50;80.88;101603.25;5013578;28;20083;-84
2022/01/18 12:22:59;;;;;;;;;;;;;;;2.56;80.77;101600.75;4995254;28;19971;-84
2022/01/18 12:25:25;;;;;;;;;;;;;;;2.53;80.48;101601.56;4995099;28;19935;-83
2022/01/18 12:27:50;;;;;;;;;;;;;;;2.58;80.02;101608.63;4995133;28;20032;-83
2022/01/18 12:30:38;;;;;;;;;;;;;;;2.65;80.13;101600.91;4994896;28;20369;-84
2022/01/18 12:33:18;;;;;;;;;;;;;;;2.64;79.57;101609.63;5012967;28;19925;-84
2022/01/18 12:35:43;;;;;;;;;;;;;;;2.60;79.71;101605.19;4995395;28;19925;-84
2022/01/18 12:38:10;;;;;;;;;;;;;;;2.63;79.78;101597.41;4994669;28;19984;-84
2022/01/18 12:40:43;;;;;;;;;;;;;;;2.71;79.57;101585.34;4995635;28;20343;-84
2022/01/18 12:45:36;;;;;;;;;;;;;;;2.71;78.98;101587.03;5013822;28;19932;-83
2022/01/18 12:48:07;;;;;;;;;;;;;;;2.75;79.28;101586.25;5013371;28;19924;-85
2022/01/18 12:50:34;;;;;;;;;;;;;;;2.89;79.69;101583.91;4993718;28;19922;-84
2022/01/18 12:53:03;;;;;;;;;;;;;;;3.15;81.29;101583.44;4988546;28;19918;-85
2022/01/18 12:55:38;;;;;;;;;;;;;;;3.28;82.76;101569.69;5013216;28;19921;-84
2022/01/18 12:58:03;;;;;;;;;;;;;;;3.39;84.39;101569.84;4993425;28;19917;-85
2022/01/18 13:00:29;;;;;;;;;;;;;;;3.45;85.69;101576.06;4994346;28;19945;-84
2022/01/18 13:02:59;;;;;;;;;;;;;;;3.49;87.02;101576.09;4994351;28;20295;-84
2022/01/18 13:05:32;;;;;;;;;;;;;;;3.51;88.09;101577.91;4994671;28;20008;-84
2022/01/18 13:07:57;;;;;;;;;;;;;;;3.39;89.15;101570.72;5008121;28;20388;-84
2022/01/18 13:10:33;;;;;;;;;;;;;;;3.32;90.16;101560.13;4994327;28;19921;-84
2022/01/18 13:12:59;;;;;;;;;;;;;;;3.17;91.16;101563.38;4993460;28;19922;-84
2022/01/18 13:15:39;;;;;;;;;;;;;;;3.24;92.11;101567.88;4993277;28;20072;-84
2022/01/18 13:24:04;;;;;;;;;;;;;;;3.20;94.68;101568.69;4958636;28;20374;-85
2022/01/18 13:26:35;;;;;;;;;;;;;;;3.17;95.92;101563.38;4993896;28;19921;-85
2022/01/18 13:29:15;;;;;;;;;;;;;;;3.17;97.09;101566.00;4993185;28;19929;-84
2022/01/18 13:31:43;;;;;;;;;;;;;;;3.16;99.14;101554.66;4994064;28;19930;-85
2022/01/18 13:34:12;;;;;;;;;;;;;;;3.41;100.00;101558.50;5012612;28;19917;-85
2022/01/18 13:36:48;;;;;;;;;;;;;;;3.62;100.00;101555.34;5012254;28;20016;-84
2022/01/18 13:39:20;;;;;;;;;;;;;;;3.80;100.00;101551.22;5012899;28;19917;-85
2022/01/18 13:41:45;;;;;;;;;;;;;;;3.91;100.00;101543.44;5011537;28;19922;-84
2022/01/18 13:44:12;;;;;;;;;;;;;;;3.99;100.00;101544.44;4993183;28;19984;-85
2022/01/18 13:46:37;;;;;;;;;;;;;;;4.08;100.00;101546.28;4994039;28;19928;-85
2022/01/18 13:49:04;;;;;;;;;;;;;;;4.14;100.00;101552.47;4994093;28;20020;-85
2022/01/18 13:51:29;;;;;;;;;;;;;;;4.21;100.00;101548.19;4994056;28;19965;-85
2022/01/18 13:53:58;;;;;;;;;;;;;;;4.28;100.00;101541.28;5011671;28;19965;-85
2022/01/18 13:56:26;;;;;;;;;;;;;;;4.33;100.00;101532.59;4993757;28;19956;-85
2022/01/18 13:59:02;;;;;;;;;;;;;;;4.37;100.00;101528.22;4992208;28;19925;-85
2022/01/18 14:01:32;;;;;;;;;;;;;;;4.44;100.00;101529.22;5012465;28;19921;-86
2022/01/18 14:04:12;;;;;;;;;;;;;;;4.47;100.00;101526.63;5010925;28;19921;-85
2022/01/18 14:06:39;;;;;;;;;;;;;;;4.53;100.00;101518.78;5011366;28;19931;-86
2022/01/18 14:09:05;;;;;;;;;;;;;;;4.59;100.00;101510.09;5011944;28;20030;-85
2022/01/18 14:11:34;;;;;;;;;;;;;;;4.60;100.00;101509.22;5012414;28;19921;-85
2022/01/18 14:14:02;;;;;;;;;;;;;;;4.65;100.00;101512.78;5010742;28;19921;-84
2022/01/18 14:16:29;;;;;;;;;;;;;;;4.69;100.00;101504.03;5011919;28;19921;-84
2022/01/18 14:18:54;;;;;;;;;;;;;;;4.70;100.00;101511.06;5011447;28;19925;-86
2022/01/18 14:21:42;;;;;;;;;;;;;;;4.72;100.00;101504.06;4993601;28;20008;-85
2022/01/18 14:24:34;;;;;;;;;;;;;;;4.77;100.00;101512.88;4993697;28;20030;-85
2022/01/18 14:27:01;;;;;;;;;;;;;;;4.72;100.00;101506.69;5006753;28;19929;-86
2022/01/18 14:29:29;;;;;;;;;;;;;;;3.79;100.00;101513.59;5011060;28;20288;-85
2022/01/18 14:32:02;;;;;;;;;;;;;;;3.40;100.00;101504.34;5011974;28;20072;-86
2022/01/18 14:34:32;;;;;;;;;;;;;;;3.20;100.00;101517.16;5012027;28;20016;-86
2022/01/18 14:36:57;;;;;;;;;;;;;;;3.09;100.00;101519.63;5011582;28;19968;-86
2022/01/18 14:39:25;;;;;;;;;;;;;;;3.02;100.00;101517.75;5011675;28;19972;-89
2022/01/18 14:41:57;;;;;;;;;;;;;;;2.97;100.00;101508.06;5009369;28;19918;-85
2022/01/18 14:44:36;;;;;;;;;;;;;;;2.89;100.00;101506.22;4988351;28;19925;-85
2022/01/18 14:49:45;;;;;;;;;;;;;;;2.75;100.00;101491.16;5011572;28;19988;-85
2022/01/18 14:52:10;;;;;;;;;;;;;;;2.72;99.19;101486.72;5015202;28;19921;-85
2022/01/18 14:54:36;;;;;;;;;;;;;;;2.63;98.69;101497.03;4997335;28;19940;-85
2022/01/18 14:57:01;;;;;;;;;;;;;;;2.60;98.27;101502.22;5014563;28;19925;-84
2022/01/18 14:59:28;;;;;;;;;;;;;;;2.54;97.88;101503.00;5012219;28;20454;-85
2022/01/18 15:01:53;;;;;;;;;;;;;;;2.55;97.26;101494.28;4997340;28;19933;-86
2022/01/18 15:04:19;;;;;;;;;;;;;;;2.55;96.72;101494.28;4994857;28;19922;-85
2022/01/18 15:06:44;;;;;;;;;;;;;;;2.48;96.21;101497.66;4995754;28;19925;-85
2022/01/18 15:09:10;;;;;;;;;;;;;;;2.47;95.79;101499.41;5014665;28;19926;-84
2022/01/18 15:11:36;;;;;;;;;;;;;;;2.40;95.26;101494.03;5015228;28;19925;-84
2022/01/18 15:14:08;;;;;;;;;;;;;;;2.40;94.90;101499.28;5013963;28;19936;-85
2022/01/18 15:16:33;;;;;;;;;;;;;;;2.34;94.23;101503.50;4995487;28;20269;-85
2022/01/18 15:18:58;;;;;;;;;;;;;;;2.34;93.65;101500.91;5013198;28;19976;-84
2022/01/18 15:21:25;;;;;;;;;;;;;;;2.29;93.17;101492.09;5013268;28;19929;-84
2022/01/18 15:23:50;;;;;;;;;;;;;;;2.26;92.92;101485.94;4996470;28;20440;-84
2022/01/18 15:26:15;;;;;;;;;;;;;;;2.26;92.38;101488.53;5014630;28;20020;-84
2022/01/18 15:28:40;;;;;;;;;;;;;;;2.25;92.17;101485.06;5013114;28;20440;-84
2022/01/18 15:31:06;;;;;;;;;;;;;;;2.19;91.64;101479.72;5013987;28;19925;-84
2022/01/18 15:33:31;;;;;;;;;;;;;;;2.13;91.15;101479.59;5014454;28;19925;-85
2022/01/18 15:35:57;;;;;;;;;;;;;;;2.15;91.10;101477.88;5014693;28;19932;-84
2022/01/18 15:38:22;;;;;;;;;;;;;;;2.13;90.86;101485.69;5013897;28;19925;-84
2022/01/18 15:40:48;;;;;;;;;;;;;;;2.06;90.43;101481.22;5011330;28;19925;-84
2022/01/18 15:43:13;;;;;;;;;;;;;;;2.07;90.30;101474.25;5013330;28;19925;-84
2022/01/18 15:45:39;;;;;;;;;;;;;;;2.01;90.14;101477.63;4996375;28;19921;-84
2022/01/18 15:48:04;;;;;;;;;;;;;;;1.99;89.82;101471.47;5014395;28;19929;-84
2022/01/18 15:50:30;;;;;;;;;;;;;;;1.96;89.46;101472.31;5014118;28;19921;-84
2022/01/18 15:52:55;;;;;;;;;;;;;;;1.96;89.39;101471.41;5013404;28;19964;-84
2022/01/18 15:55:20;;;;;;;;;;;;;;;1.86;89.28;101475.59;5013081;28;19922;-84
2022/01/18 15:57:46;;;;;;;;;;;;;;;1.87;89.02;101469.53;4994633;28;19921;-85
2022/01/18 16:00:11;;;;;;;;;;;;;;;1.91;88.65;101468.72;5010787;28;19921;-84
2022/01/18 16:02:37;;;;;;;;;;;;;;;1.83;88.52;101470.28;5011561;28;19929;-84
2022/01/18 16:05:02;;;;;;;;;;;;;;;1.79;88.45;101471.09;5004661;28;20023;-84
2022/01/18 16:07:27;;;;;;;;;;;;;;;1.85;88.46;101460.78;4992506;28;20066;-85
2022/01/18 16:09:53;;;;;;;;;;;;;;;1.81;88.33;101458.94;5013566;28;20003;-85
2022/01/18 16:12:18;;;;;;;;;;;;;;;1.76;88.25;101463.19;5014064;28;19922;-84
2022/01/18 16:14:43;;;;;;;;;;;;;;;1.74;88.14;101462.25;5011582;28;19968;-85
2022/01/18 16:17:08;;;;;;;;;;;;;;;1.73;88.09;101460.53;5013879;28;19926;-85
2022/01/18 16:19:34;;;;;;;;;;;;;;;1.72;87.83;101458.75;5013520;28;19928;-85
2022/01/18 16:22:00;;;;;;;;;;;;;;;1.71;87.81;101449.13;4993572;28;19929;-84
2022/01/18 16:24:25;;;;;;;;;;;;;;;1.73;87.89;101453.56;5013873;28;19983;-85
2022/01/18 16:26:52;;;;;;;;;;;;;;;1.69;87.66;101449.13;5013605;28;20339;-85
2022/01/18 16:29:17;;;;;;;;;;;;;;;1.62;87.62;101450.72;5012642;28;19933;-86
2022/01/18 16:31:43;;;;;;;;;;;;;;;1.56;87.23;101442.75;5012708;28;20287;-85
2022/01/18 16:34:08;;;;;;;;;;;;;;;1.54;87.32;101447.06;4994098;28;19921;-85
2022/01/18 16:36:35;;;;;;;;;;;;;;;1.57;87.26;101444.53;4995653;28;20384;-85
2022/01/18 16:39:00;;;;;;;;;;;;;;;1.57;87.12;101444.53;5012791;28;20356;-85
2022/01/18 16:41:25;;;;;;;;;;;;;;;1.53;86.96;101441.81;5014074;28;19940;-85
2022/01/18 16:43:51;;;;;;;;;;;;;;;1.51;86.80;101436.56;4994962;28;19944;-85
2022/01/18 16:46:16;;;;;;;;;;;;;;;1.52;86.71;101438.31;5013831;28;20380;-85
2022/01/18 16:48:42;;;;;;;;;;;;;;;1.44;86.70;101438.16;5013967;28;19922;-85
2022/01/18 16:51:07;;;;;;;;;;;;;;;1.43;86.48;101432.91;4994328;28;20250;-86
2022/01/18 16:53:34;;;;;;;;;;;;;;;1.41;86.50;101426.78;5013084;28;19928;-86
2022/01/18 16:55:59;;;;;;;;;;;;;;;1.42;86.45;101434.66;5012964;28;19917;-86
2022/01/18 16:58:25;;;;;;;;;;;;;;;1.42;86.51;101423.28;5011908;28;19932;-85
2022/01/18 17:00:50;;;;;;;;;;;;;;;1.41;86.48;101424.16;4987261;28;20459;-85
2022/01/18 17:03:15;;;;;;;;;;;;;;;1.41;86.63;101424.16;5003063;28;20637;-85
2022/01/18 17:05:43;;;;;;;;;;;;;;;1.39;86.43;101425.88;5003306;28;19917;-85
2022/01/18 17:08:08;;;;;;;;;;;;;;;1.33;86.45;101426.63;5001848;28;19917;-86
2022/01/18 17:10:34;;;;;;;;;;;;;;;1.32;86.35;101422.22;4981746;28;19929;-85
2022/01/18 17:12:59;;;;;;;;;;;;;;;1.33;86.14;101426.63;4998344;28;19969;-85
2022/01/18 17:15:24;;;;;;;;;;;;;;;1.31;85.98;101422.19;5002350;28;19933;-85
2022/01/18 17:17:50;;;;;;;;;;;;;;;1.33;85.84;101423.13;5001628;28;19918;-85
2022/01/18 17:20:15;;;;;;;;;;;;;;;1.26;85.67;101420.38;4985745;28;19921;-85
2022/01/18 17:22:41;;;;;;;;;;;;;;;1.27;85.52;101421.25;5003136;28;20266;-85
2022/01/18 17:25:07;;;;;;;;;;;;;;;1.26;85.36;101424.69;5002622;28;19917;-86
2022/01/18 17:27:32;;;;;;;;;;;;;;;1.26;85.38;101423.00;5002310;28;19921;-85
2022/01/18 17:29:58;;;;;;;;;;;;;;;1.29;85.53;101410.84;4999059;28;19926;-84
2022/01/18 17:32:25;;;;;;;;;;;;;;;1.29;85.36;101408.22;5001276;28;19924;-86
2022/01/18 17:34:50;;;;;;;;;;;;;;;1.25;85.37;101407.28;5002162;28;19976;-84
2022/01/18 17:37:16;;;;;;;;;;;;;;;1.23;85.45;101404.66;4984760;28;19964;-85
2022/01/18 17:39:41;;;;;;;;;;;;;;;1.21;85.56;101408.97;4984979;28;19922;-85
2022/01/18 17:42:06;;;;;;;;;;;;;;;1.20;85.52;101401.09;5001972;28;19922;-85
2022/01/18 17:44:34;;;;;;;;;;;;;;;1.20;85.50;101393.25;5001242;28;19917;-86
2022/01/18 17:47:00;;;;;;;;;;;;;;;1.25;85.56;101396.84;5002168;28;19976;-85
2022/01/18 17:49:27;;;;;;;;;;;;;;;1.23;85.48;101396.81;5001826;28;20942;-85
2022/01/18 17:51:52;;;;;;;;;;;;;;;1.23;85.40;101399.44;5002035;28;19921;-85
2022/01/18 17:54:17;;;;;;;;;;;;;;;1.18;85.17;101393.22;5001939;28;20035;-85
2022/01/18 17:56:43;;;;;;;;;;;;;;;1.19;85.26;101387.13;5002099;28;19957;-85
2022/01/18 17:59:09;;;;;;;;;;;;;;;1.19;85.30;101381.91;5001231;28;20008;-84
2022/01/18 18:01:34;;;;;;;;;;;;;;;1.15;85.12;101372.28;5011888;28;20032;-84
2022/01/18 18:03:59;;;;;;;;;;;;;;;1.16;85.01;101380.97;5011007;28;20562;-84
2022/01/18 18:06:24;;;;;;;;;;;;;;;1.15;84.71;101369.66;5011796;28;19935;-84
2022/01/18 18:08:50;;;;;;;;;;;;;;;1.14;84.42;101367.03;5011739;28;20384;-84
2022/01/18 18:11:15;;;;;;;;;;;;;;;1.13;84.38;101363.50;4992931;28;19918;-85
2022/01/18 18:13:40;;;;;;;;;;;;;;;1.14;84.66;101360.06;5010475;28;19921;-84
2022/01/18 18:16:07;;;;;;;;;;;;;;;1.14;84.48;101352.22;5011412;28;20335;-85
2022/01/18 18:18:33;;;;;;;;;;;;;;;1.12;84.25;101346.09;5011537;28;19971;-83
2022/01/18 18:20:58;;;;;;;;;;;;;;;1.13;84.24;101340.00;5011543;28;19918;-84
2022/01/18 18:23:23;;;;;;;;;;;;;;;1.12;84.01;101346.09;5011421;28;19960;-84
2022/01/18 18:25:49;;;;;;;;;;;;;;;1.10;84.11;101329.50;5011533;28;20048;-84
2022/01/18 18:28:17;;;;;;;;;;;;;;;1.13;83.68;101340.00;5010101;28;19913;-85
2022/01/18 18:30:42;;;;;;;;;;;;;;;1.07;83.76;101335.56;5011451;28;20008;-84
2022/01/18 18:33:08;;;;;;;;;;;;;;;1.16;83.68;101340.06;5011413;28;19920;-85
2022/01/18 18:35:33;;;;;;;;;;;;;;;1.18;83.76;101345.31;5011362;28;19917;-84
2022/01/18 18:37:58;;;;;;;;;;;;;;;1.19;83.68;101336.66;5011608;28;19972;-85
2022/01/18 18:40:32;;;;;;;;;;;;;;;1.18;83.66;101338.41;5011321;28;19914;-84
2022/01/18 18:45:38;;;;;;;;;;;;;;;1.17;83.01;101323.56;5012219;28;19924;-85
2022/01/18 18:48:05;;;;;;;;;;;;;;;1.19;82.81;101318.38;5012021;28;20289;-85
2022/01/18 18:50:32;;;;;;;;;;;;;;;1.16;82.77;101319.19;5012062;28;19995;-84
2022/01/18 18:52:57;;;;;;;;;;;;;;;1.17;82.81;101307.91;5011754;28;19924;-84
2022/01/18 18:55:23;;;;;;;;;;;;;;;1.20;82.70;101291.41;5011915;28;19925;-85
2022/01/18 18:57:54;;;;;;;;;;;;;;;1.19;82.46;101282.69;4993671;28;19964;-85
2022/01/18 19:00:23;;;;;;;;;;;;;;;1.18;82.43;101296.63;5010806;28;19921;-85
2022/01/18 19:03:03;;;;;;;;;;;;;;;1.14;82.14;101299.13;4992988;28;19924;-85
2022/01/18 19:05:30;;;;;;;;;;;;;;;1.18;82.01;101311.38;5011654;28;19917;-85
2022/01/18 19:07:55;;;;;;;;;;;;;;;1.21;81.91;101316.66;5010652;28;19929;-85
2022/01/18 19:10:23;;;;;;;;;;;;;;;1.24;81.87;101312.38;5009342;28;19917;-85
2022/01/18 19:12:49;;;;;;;;;;;;;;;1.25;81.69;101314.16;5011632;28;19917;-85
2022/01/18 19:15:15;;;;;;;;;;;;;;;1.23;81.24;101321.09;5010560;28;19918;-84
2022/01/18 19:17:41;;;;;;;;;;;;;;;1.19;81.20;101320.97;5010910;28;20028;-85
2022/01/18 19:20:07;;;;;;;;;;;;;;;1.20;81.10;101326.25;4993382;28;20284;-86
2022/01/18 19:22:32;;;;;;;;;;;;;;;1.23;81.05;101321.09;4992436;28;19917;-85
2022/01/18 19:24:57;;;;;;;;;;;;;;;1.25;81.03;101323.72;4992372;28;20018;-84
2022/01/18 19:27:23;;;;;;;;;;;;;;;1.23;80.84;101315.84;5010777;28;20503;-85
2022/01/18 19:29:48;;;;;;;;;;;;;;;1.23;80.58;101315.00;5009690;28;19928;-86
2022/01/18 19:32:13;;;;;;;;;;;;;;;1.22;80.28;101314.09;4992088;28;19968;-86
2022/01/18 19:34:39;;;;;;;;;;;;;;;1.27;80.45;101314.19;5014198;28;19924;-86
2022/01/18 19:37:04;;;;;;;;;;;;;;;1.33;80.39;101313.44;4996396;28;19928;-84
2022/01/18 19:39:29;;;;;;;;;;;;;;;1.27;80.21;101307.22;5014311;28;20361;-84
2022/01/18 19:41:56;;;;;;;;;;;;;;;1.34;80.19;101308.25;4996187;28;20032;-85
2022/01/18 19:44:21;;;;;;;;;;;;;;;1.33;80.26;101318.66;4994394;28;19936;-85
2022/01/18 19:46:47;;;;;;;;;;;;;;;1.33;80.13;101305.59;5014416;28;20285;-85
2022/01/18 19:49:12;;;;;;;;;;;;;;;1.55;81.21;101296.44;5014260;28;19918;-86
2022/01/18 19:51:39;;;;;;;;;;;;;;;1.43;81.11;101292.72;4996147;28;20373;-85
2022/01/18 19:54:05;;;;;;;;;;;;;;;1.38;81.01;101293.50;5013488;28;19924;-86
2022/01/18 19:56:33;;;;;;;;;;;;;;;1.40;81.06;101291.78;5012903;28;19918;-86
2022/01/18 19:58:58;;;;;;;;;;;;;;;1.39;80.60;101284.81;5013083;28;19922;-87
2022/01/18 20:01:24;;;;;;;;;;;;;;;1.42;80.61;101284.84;5012995;28;19949;-86
2022/01/18 20:03:49;;;;;;;;;;;;;;;1.40;80.41;101286.56;4995948;28;19922;-86
2022/01/18 20:06:15;;;;;;;;;;;;;;;1.42;80.16;101285.75;4994194;28;19918;-86
2022/01/18 20:08:40;;;;;;;;;;;;;;;1.43;80.38;101282.25;5013749;28;19940;-87